sensor_id;sensor_type;location;lat;lon;timestamp;P1;durP1;ratioP1;P2;durP2;ratioP2
17993;SDS011;9122;48.406;9.984;2024-02-26T00:01:47;4.93;;;4.60;;
17993;SDS011;9122;48.406;9.984;2024-02-26T00:04:31;5.00;;;4.60;;
17993;SDS011;9122;48.406;9.984;2024-02-26T00:07:16;4.80;;;4.40;;
17993;SDS011;9122;48.406;9.984;2024-02-26T00:10:00;4.83;;;4.43;;
17993;SDS011;9122;48.406;9.984;2024-02-26T00:12:44;4.47;;;4.10;;
17993;SDS011;9122;48.406;9.984;2024-02-26T00:15:28;5.03;;;4.53;;
17993;SDS011;9122;48.406;9.984;2024-02-26T00:18:12;4.93;;;4.53;;
17993;SDS011;9122;48.406;9.984;2024-02-26T00:20:56;5.30;;;4.90;;
17993;SDS011;9122;48.406;9.984;2024-02-26T00:23:40;5.40;;;4.90;;
17993;SDS011;9122;48.406;9.984;2024-02-26T00:26:25;5.60;;;5.20;;
17993;SDS011;9122;48.406;9.984;2024-02-26T00:29:09;5.03;;;4.73;;
17993;SDS011;9122;48.406;9.984;2024-02-26T00:31:53;4.93;;;4.63;;
17993;SDS011;9122;48.406;9.984;2024-02-26T00:34:38;5.03;;;4.63;;
17993;SDS011;9122;48.406;9.984;2024-02-26T00:37:22;5.03;;;4.63;;
17993;SDS011;9122;48.406;9.984;2024-02-26T00:40:06;4.83;;;4.47;;
17993;SDS011;9122;48.406;9.984;2024-02-26T00:42:52;5.57;;;5.17;;
17993;SDS011;9122;48.406;9.984;2024-02-26T00:45:37;5.90;;;5.30;;
17993;SDS011;9122;48.406;9.984;2024-02-26T00:48:21;5.63;;;5.13;;
17993;SDS011;9122;48.406;9.984;2024-02-26T00:51:05;5.90;;;5.40;;
17993;SDS011;9122;48.406;9.984;2024-02-26T00:53:50;6.03;;;5.40;;
17993;SDS011;9122;48.406;9.984;2024-02-26T00:56:34;5.53;;;5.10;;
17993;SDS011;9122;48.406;9.984;2024-02-26T00:59:18;5.30;;;4.87;;
17993;SDS011;9122;48.406;9.984;2024-02-26T01:02:02;5.57;;;5.10;;
17993;SDS011;9122;48.406;9.984;2024-02-26T01:04:49;6.27;;;5.77;;
17993;SDS011;9122;48.406;9.984;2024-02-26T01:07:33;6.03;;;5.63;;
17993;SDS011;9122;48.406;9.984;2024-02-26T01:10:19;6.47;;;5.90;;
17993;SDS011;9122;48.406;9.984;2024-02-26T01:13:03;6.27;;;5.77;;
17993;SDS011;9122;48.406;9.984;2024-02-26T01:15:47;5.83;;;5.33;;
17993;SDS011;9122;48.406;9.984;2024-02-26T01:18:32;6.57;;;5.97;;
17993;SDS011;9122;48.406;9.984;2024-02-26T01:21:16;5.57;;;5.17;;
17993;SDS011;9122;48.406;9.984;2024-02-26T01:24:00;6.63;;;6.03;;
17993;SDS011;9122;48.406;9.984;2024-02-26T01:26:44;6.37;;;5.87;;
17993;SDS011;9122;48.406;9.984;2024-02-26T01:29:29;5.77;;;5.37;;
17993;SDS011;9122;48.406;9.984;2024-02-26T01:32:14;6.47;;;5.97;;
17993;SDS011;9122;48.406;9.984;2024-02-26T01:34:58;5.80;;;5.20;;
17993;SDS011;9122;48.406;9.984;2024-02-26T01:37:42;6.13;;;5.53;;
17993;SDS011;9122;48.406;9.984;2024-02-26T01:40:27;6.20;;;5.70;;
17993;SDS011;9122;48.406;9.984;2024-02-26T01:43:11;6.80;;;5.70;;
17993;SDS011;9122;48.406;9.984;2024-02-26T01:45:55;6.70;;;6.10;;
17993;SDS011;9122;48.406;9.984;2024-02-26T01:48:43;6.07;;;5.63;;
17993;SDS011;9122;48.406;9.984;2024-02-26T01:51:31;7.03;;;6.33;;
17993;SDS011;9122;48.406;9.984;2024-02-26T01:54:16;6.50;;;6.00;;
17993;SDS011;9122;48.406;9.984;2024-02-26T01:57:01;7.00;;;6.40;;
17993;SDS011;9122;48.406;9.984;2024-02-26T01:59:47;7.07;;;6.47;;
17993;SDS011;9122;48.406;9.984;2024-02-26T02:02:31;6.80;;;6.30;;
17993;SDS011;9122;48.406;9.984;2024-02-26T02:05:16;7.13;;;6.53;;
17993;SDS011;9122;48.406;9.984;2024-02-26T02:08:01;6.57;;;6.07;;
17993;SDS011;9122;48.406;9.984;2024-02-26T02:10:47;8.20;;;7.43;;
17993;SDS011;9122;48.406;9.984;2024-02-26T02:13:32;8.03;;;7.23;;
17993;SDS011;9122;48.406;9.984;2024-02-26T02:16:17;7.20;;;6.60;;
17993;SDS011;9122;48.406;9.984;2024-02-26T02:19:01;7.40;;;6.80;;
17993;SDS011;9122;48.406;9.984;2024-02-26T02:21:45;8.47;;;7.73;;
17993;SDS011;9122;48.406;9.984;2024-02-26T02:24:29;7.83;;;7.20;;
17993;SDS011;9122;48.406;9.984;2024-02-26T02:27:13;8.50;;;7.63;;
17993;SDS011;9122;48.406;9.984;2024-02-26T02:29:57;8.43;;;7.60;;
17993;SDS011;9122;48.406;9.984;2024-02-26T02:32:42;7.53;;;6.93;;
17993;SDS011;9122;48.406;9.984;2024-02-26T02:35:27;7.30;;;6.60;;
17993;SDS011;9122;48.406;9.984;2024-02-26T02:38:11;8.17;;;7.37;;
17993;SDS011;9122;48.406;9.984;2024-02-26T02:40:56;8.23;;;7.53;;
17993;SDS011;9122;48.406;9.984;2024-02-26T02:43:41;8.10;;;7.33;;
17993;SDS011;9122;48.406;9.984;2024-02-26T02:46:25;7.50;;;6.90;;
17993;SDS011;9122;48.406;9.984;2024-02-26T02:49:09;7.83;;;7.20;;
17993;SDS011;9122;48.406;9.984;2024-02-26T02:51:54;7.17;;;6.57;;
17993;SDS011;9122;48.406;9.984;2024-02-26T02:54:41;7.87;;;7.17;;
17993;SDS011;9122;48.406;9.984;2024-02-26T02:57:26;7.73;;;7.03;;
17993;SDS011;9122;48.406;9.984;2024-02-26T03:00:10;7.17;;;6.57;;
17993;SDS011;9122;48.406;9.984;2024-02-26T03:02:55;7.63;;;7.03;;
17993;SDS011;9122;48.406;9.984;2024-02-26T03:05:39;8.73;;;8.03;;
17993;SDS011;9122;48.406;9.984;2024-02-26T03:08:24;8.90;;;8.10;;
17993;SDS011;9122;48.406;9.984;2024-02-26T03:11:12;9.03;;;7.90;;
17993;SDS011;9122;48.406;9.984;2024-02-26T03:13:58;10.13;;;7.53;;
17993;SDS011;9122;48.406;9.984;2024-02-26T03:16:43;7.90;;;7.30;;
17993;SDS011;9122;48.406;9.984;2024-02-26T03:19:28;7.73;;;7.13;;
17993;SDS011;9122;48.406;9.984;2024-02-26T03:22:12;7.30;;;6.70;;
17993;SDS011;9122;48.406;9.984;2024-02-26T03:24:57;6.93;;;6.43;;
17993;SDS011;9122;48.406;9.984;2024-02-26T03:27:41;7.20;;;6.50;;
17993;SDS011;9122;48.406;9.984;2024-02-26T03:30:25;7.40;;;6.80;;
17993;SDS011;9122;48.406;9.984;2024-02-26T03:33:10;7.33;;;6.63;;
17993;SDS011;9122;48.406;9.984;2024-02-26T03:35:54;7.80;;;7.10;;
17993;SDS011;9122;48.406;9.984;2024-02-26T03:38:40;6.77;;;6.27;;
17993;SDS011;9122;48.406;9.984;2024-02-26T03:41:24;7.63;;;6.90;;
17993;SDS011;9122;48.406;9.984;2024-02-26T03:44:09;7.37;;;6.47;;
17993;SDS011;9122;48.406;9.984;2024-02-26T03:46:53;7.33;;;6.73;;
17993;SDS011;9122;48.406;9.984;2024-02-26T03:49:37;7.53;;;6.87;;
17993;SDS011;9122;48.406;9.984;2024-02-26T03:52:22;7.47;;;6.87;;
17993;SDS011;9122;48.406;9.984;2024-02-26T03:55:06;8.27;;;7.27;;
17993;SDS011;9122;48.406;9.984;2024-02-26T03:57:51;8.63;;;7.83;;
17993;SDS011;9122;48.406;9.984;2024-02-26T04:00:36;8.80;;;7.90;;
17993;SDS011;9122;48.406;9.984;2024-02-26T04:03:20;7.93;;;7.33;;
17993;SDS011;9122;48.406;9.984;2024-02-26T04:06:08;8.47;;;7.67;;
17993;SDS011;9122;48.406;9.984;2024-02-26T04:08:53;7.77;;;7.07;;
17993;SDS011;9122;48.406;9.984;2024-02-26T04:11:38;8.00;;;7.30;;
17993;SDS011;9122;48.406;9.984;2024-02-26T04:14:22;7.90;;;7.20;;
17993;SDS011;9122;48.406;9.984;2024-02-26T04:17:06;7.87;;;7.07;;
17993;SDS011;9122;48.406;9.984;2024-02-26T04:19:50;7.53;;;6.83;;
17993;SDS011;9122;48.406;9.984;2024-02-26T04:22:35;6.97;;;6.47;;
17993;SDS011;9122;48.406;9.984;2024-02-26T04:25:19;7.30;;;6.70;;
17993;SDS011;9122;48.406;9.984;2024-02-26T04:28:03;7.73;;;7.10;;
17993;SDS011;9122;48.406;9.984;2024-02-26T04:30:48;7.77;;;7.07;;
17993;SDS011;9122;48.406;9.984;2024-02-26T04:33:35;7.63;;;6.90;;
17993;SDS011;9122;48.406;9.984;2024-02-26T04:36:20;7.97;;;7.27;;
17993;SDS011;9122;48.406;9.984;2024-02-26T04:39:05;7.93;;;7.23;;
17993;SDS011;9122;48.406;9.984;2024-02-26T04:41:51;8.07;;;7.37;;
17993;SDS011;9122;48.406;9.984;2024-02-26T04:44:35;8.17;;;7.47;;
17993;SDS011;9122;48.406;9.984;2024-02-26T04:47:20;8.23;;;7.53;;
17993;SDS011;9122;48.406;9.984;2024-02-26T04:50:05;9.77;;;8.50;;
17993;SDS011;9122;48.406;9.984;2024-02-26T04:52:50;8.17;;;7.47;;
17993;SDS011;9122;48.406;9.984;2024-02-26T04:55:34;8.90;;;8.10;;
17993;SDS011;9122;48.406;9.984;2024-02-26T04:58:18;9.10;;;8.20;;
17993;SDS011;9122;48.406;9.984;2024-02-26T05:01:03;9.07;;;7.73;;
17993;SDS011;9122;48.406;9.984;2024-02-26T05:03:47;9.30;;;8.50;;
17993;SDS011;9122;48.406;9.984;2024-02-26T05:06:32;9.90;;;8.60;;
17993;SDS011;9122;48.406;9.984;2024-02-26T05:09:17;9.67;;;8.87;;
17993;SDS011;9122;48.406;9.984;2024-02-26T05:12:02;9.20;;;8.33;;
17993;SDS011;9122;48.406;9.984;2024-02-26T05:14:47;8.83;;;8.03;;
17993;SDS011;9122;48.406;9.984;2024-02-26T05:17:31;9.47;;;8.50;;
17993;SDS011;9122;48.406;9.984;2024-02-26T05:20:16;8.77;;;7.97;;
17993;SDS011;9122;48.406;9.984;2024-02-26T05:23:00;9.77;;;8.40;;
17993;SDS011;9122;48.406;9.984;2024-02-26T05:25:44;10.63;;;9.50;;
17993;SDS011;9122;48.406;9.984;2024-02-26T05:28:31;14.37;;;10.37;;
17993;SDS011;9122;48.406;9.984;2024-02-26T05:31:16;10.80;;;9.70;;
17993;SDS011;9122;48.406;9.984;2024-02-26T05:34:01;12.90;;;10.50;;
17993;SDS011;9122;48.406;9.984;2024-02-26T05:36:46;10.43;;;9.33;;
17993;SDS011;9122;48.406;9.984;2024-02-26T05:39:30;10.90;;;9.47;;
17993;SDS011;9122;48.406;9.984;2024-02-26T05:42:14;11.17;;;9.97;;
17993;SDS011;9122;48.406;9.984;2024-02-26T05:44:58;10.50;;;9.47;;
17993;SDS011;9122;48.406;9.984;2024-02-26T05:47:42;10.37;;;9.33;;
17993;SDS011;9122;48.406;9.984;2024-02-26T05:50:26;10.33;;;9.33;;
17993;SDS011;9122;48.406;9.984;2024-02-26T05:53:10;11.07;;;10.07;;
17993;SDS011;9122;48.406;9.984;2024-02-26T05:55:55;13.03;;;10.70;;
17993;SDS011;9122;48.406;9.984;2024-02-26T05:58:39;11.23;;;10.10;;
17993;SDS011;9122;48.406;9.984;2024-02-26T06:01:23;12.50;;;11.07;;
17993;SDS011;9122;48.406;9.984;2024-02-26T06:04:09;12.57;;;9.97;;
17993;SDS011;9122;48.406;9.984;2024-02-26T06:06:54;12.40;;;11.20;;
17993;SDS011;9122;48.406;9.984;2024-02-26T06:09:38;11.67;;;10.50;;
17993;SDS011;9122;48.406;9.984;2024-02-26T06:12:23;12.93;;;11.63;;
17993;SDS011;9122;48.406;9.984;2024-02-26T06:15:08;12.77;;;11.40;;
17993;SDS011;9122;48.406;9.984;2024-02-26T06:17:52;12.37;;;11.03;;
17993;SDS011;9122;48.406;9.984;2024-02-26T06:20:37;13.17;;;11.70;;
17993;SDS011;9122;48.406;9.984;2024-02-26T06:23:22;12.43;;;11.23;;
17993;SDS011;9122;48.406;9.984;2024-02-26T06:26:07;13.10;;;11.40;;
17993;SDS011;9122;48.406;9.984;2024-02-26T06:28:51;13.33;;;11.73;;
17993;SDS011;9122;48.406;9.984;2024-02-26T06:31:36;13.03;;;11.63;;
17993;SDS011;9122;48.406;9.984;2024-02-26T06:34:21;12.83;;;11.43;;
17993;SDS011;9122;48.406;9.984;2024-02-26T06:37:05;15.40;;;13.03;;
17993;SDS011;9122;48.406;9.984;2024-02-26T06:39:49;14.37;;;12.83;;
17993;SDS011;9122;48.406;9.984;2024-02-26T06:42:35;14.53;;;12.33;;
17993;SDS011;9122;48.406;9.984;2024-02-26T06:45:20;14.90;;;12.93;;
17993;SDS011;9122;48.406;9.984;2024-02-26T06:48:05;13.63;;;12.23;;
17993;SDS011;9122;48.406;9.984;2024-02-26T06:50:50;16.07;;;13.13;;
17993;SDS011;9122;48.406;9.984;2024-02-26T06:53:35;14.57;;;13.07;;
17993;SDS011;9122;48.406;9.984;2024-02-26T06:56:19;15.83;;;12.97;;
17993;SDS011;9122;48.406;9.984;2024-02-26T06:59:04;14.97;;;13.20;;
17993;SDS011;9122;48.406;9.984;2024-02-26T07:01:48;16.23;;;13.80;;
17993;SDS011;9122;48.406;9.984;2024-02-26T07:04:33;15.33;;;13.73;;
17993;SDS011;9122;48.406;9.984;2024-02-26T07:07:17;16.30;;;13.40;;
17993;SDS011;9122;48.406;9.984;2024-02-26T07:10:02;14.80;;;12.83;;
17993;SDS011;9122;48.406;9.984;2024-02-26T07:12:47;15.73;;;13.40;;
17993;SDS011;9122;48.406;9.984;2024-02-26T07:15:32;14.87;;;13.33;;
17993;SDS011;9122;48.406;9.984;2024-02-26T07:18:17;14.70;;;13.20;;
17993;SDS011;9122;48.406;9.984;2024-02-26T07:21:02;15.37;;;13.77;;
17993;SDS011;9122;48.406;9.984;2024-02-26T07:23:47;17.63;;;14.03;;
17993;SDS011;9122;48.406;9.984;2024-02-26T07:26:31;15.47;;;13.27;;
17993;SDS011;9122;48.406;9.984;2024-02-26T07:29:16;14.40;;;12.83;;
17993;SDS011;9122;48.406;9.984;2024-02-26T07:32:00;14.77;;;13.23;;
17993;SDS011;9122;48.406;9.984;2024-02-26T07:34:44;14.03;;;12.53;;
17993;SDS011;9122;48.406;9.984;2024-02-26T07:37:29;14.73;;;13.17;;
17993;SDS011;9122;48.406;9.984;2024-02-26T07:40:13;15.33;;;13.73;;
17993;SDS011;9122;48.406;9.984;2024-02-26T07:42:58;13.80;;;12.40;;
17993;SDS011;9122;48.406;9.984;2024-02-26T07:45:42;15.53;;;13.83;;
17993;SDS011;9122;48.406;9.984;2024-02-26T07:48:27;17.53;;;14.83;;
17993;SDS011;9122;48.406;9.984;2024-02-26T07:51:12;20.03;;;14.80;;
17993;SDS011;9122;48.406;9.984;2024-02-26T07:54:01;15.07;;;13.50;;
17993;SDS011;9122;48.406;9.984;2024-02-26T07:56:46;20.27;;;16.77;;
17993;SDS011;9122;48.406;9.984;2024-02-26T07:59:30;14.93;;;13.37;;
17993;SDS011;9122;48.406;9.984;2024-02-26T08:02:15;15.13;;;13.43;;
17993;SDS011;9122;48.406;9.984;2024-02-26T08:05:00;14.90;;;12.30;;
17993;SDS011;9122;48.406;9.984;2024-02-26T08:07:44;14.23;;;12.50;;
17993;SDS011;9122;48.406;9.984;2024-02-26T08:10:29;15.53;;;13.17;;
17993;SDS011;9122;48.406;9.984;2024-02-26T08:13:13;17.13;;;14.33;;
17993;SDS011;9122;48.406;9.984;2024-02-26T08:15:57;16.17;;;13.17;;
17993;SDS011;9122;48.406;9.984;2024-02-26T08:18:42;16.87;;;14.47;;
17993;SDS011;9122;48.406;9.984;2024-02-26T08:21:26;14.90;;;13.27;;
17993;SDS011;9122;48.406;9.984;2024-02-26T08:24:11;16.00;;;13.60;;
17993;SDS011;9122;48.406;9.984;2024-02-26T08:26:56;16.50;;;13.60;;
17993;SDS011;9122;48.406;9.984;2024-02-26T08:29:41;15.27;;;13.37;;
17993;SDS011;9122;48.406;9.984;2024-02-26T08:32:25;18.83;;;13.90;;
17993;SDS011;9122;48.406;9.984;2024-02-26T08:35:10;18.83;;;14.80;;
17993;SDS011;9122;48.406;9.984;2024-02-26T08:37:55;14.60;;;12.00;;
17993;SDS011;9122;48.406;9.984;2024-02-26T08:40:39;20.23;;;15.30;;
17993;SDS011;9122;48.406;9.984;2024-02-26T08:43:24;21.30;;;15.73;;
17993;SDS011;9122;48.406;9.984;2024-02-26T08:46:09;20.70;;;14.73;;
17993;SDS011;9122;48.406;9.984;2024-02-26T08:48:54;15.40;;;13.03;;
17993;SDS011;9122;48.406;9.984;2024-02-26T08:51:41;16.57;;;12.57;;
17993;SDS011;9122;48.406;9.984;2024-02-26T08:54:27;13.57;;;12.17;;
17993;SDS011;9122;48.406;9.984;2024-02-26T08:57:11;13.57;;;12.17;;
17993;SDS011;9122;48.406;9.984;2024-02-26T08:59:56;25.70;;;17.80;;
17993;SDS011;9122;48.406;9.984;2024-02-26T09:02:41;16.73;;;12.80;;
17993;SDS011;9122;48.406;9.984;2024-02-26T09:05:33;34.67;;;22.17;;
17993;SDS011;9122;48.406;9.984;2024-02-26T09:08:19;18.10;;;14.87;;
17993;SDS011;9122;48.406;9.984;2024-02-26T09:11:04;17.03;;;13.80;;
17993;SDS011;9122;48.406;9.984;2024-02-26T09:13:51;14.83;;;12.77;;
17993;SDS011;9122;48.406;9.984;2024-02-26T09:16:36;13.87;;;11.80;;
17993;SDS011;9122;48.406;9.984;2024-02-26T09:19:21;12.77;;;11.10;;
17993;SDS011;9122;48.406;9.984;2024-02-26T09:22:05;16.13;;;14.43;;
17993;SDS011;9122;48.406;9.984;2024-02-26T09:24:50;12.97;;;11.67;;
17993;SDS011;9122;48.406;9.984;2024-02-26T09:27:37;11.40;;;10.30;;
17993;SDS011;9122;48.406;9.984;2024-02-26T09:30:21;12.57;;;11.23;;
17993;SDS011;9122;48.406;9.984;2024-02-26T09:33:06;11.73;;;10.53;;
17993;SDS011;9122;48.406;9.984;2024-02-26T09:35:50;10.27;;;9.20;;
17993;SDS011;9122;48.406;9.984;2024-02-26T09:38:35;11.43;;;10.23;;
17993;SDS011;9122;48.406;9.984;2024-02-26T09:41:21;11.90;;;10.27;;
17993;SDS011;9122;48.406;9.984;2024-02-26T09:44:06;10.73;;;9.10;;
17993;SDS011;9122;48.406;9.984;2024-02-26T09:46:53;9.17;;;8.27;;
17993;SDS011;9122;48.406;9.984;2024-02-26T09:49:38;9.50;;;8.57;;
17993;SDS011;9122;48.406;9.984;2024-02-26T09:52:23;10.30;;;9.17;;
17993;SDS011;9122;48.406;9.984;2024-02-26T09:55:09;9.77;;;8.80;;
17993;SDS011;9122;48.406;9.984;2024-02-26T09:57:53;10.93;;;9.83;;
17993;SDS011;9122;48.406;9.984;2024-02-26T10:00:38;10.10;;;9.17;;
17993;SDS011;9122;48.406;9.984;2024-02-26T10:03:47;10.27;;;9.27;;
17993;SDS011;9122;48.406;9.984;2024-02-26T10:06:31;10.33;;;7.40;;
17993;SDS011;9122;48.406;9.984;2024-02-26T10:09:16;7.93;;;7.17;;
17993;SDS011;9122;48.406;9.984;2024-02-26T10:12:02;6.40;;;5.80;;
17993;SDS011;9122;48.406;9.984;2024-02-26T10:14:47;6.87;;;6.27;;
17993;SDS011;9122;48.406;9.984;2024-02-26T10:17:31;7.20;;;5.73;;
17993;SDS011;9122;48.406;9.984;2024-02-26T10:20:17;7.20;;;6.33;;
17993;SDS011;9122;48.406;9.984;2024-02-26T10:23:02;5.83;;;5.33;;
17993;SDS011;9122;48.406;9.984;2024-02-26T10:25:56;6.80;;;6.10;;
17993;SDS011;9122;48.406;9.984;2024-02-26T10:28:41;6.03;;;5.53;;
17993;SDS011;9122;48.406;9.984;2024-02-26T10:31:26;6.77;;;6.17;;
17993;SDS011;9122;48.406;9.984;2024-02-26T10:34:11;7.37;;;6.67;;
17993;SDS011;9122;48.406;9.984;2024-02-26T10:36:56;7.27;;;6.63;;
17993;SDS011;9122;48.406;9.984;2024-02-26T10:39:46;8.63;;;7.83;;
17993;SDS011;9122;48.406;9.984;2024-02-26T10:42:30;8.30;;;7.20;;
17993;SDS011;9122;48.406;9.984;2024-02-26T10:45:14;8.57;;;7.77;;
17993;SDS011;9122;48.406;9.984;2024-02-26T10:48:00;7.90;;;7.20;;
17993;SDS011;9122;48.406;9.984;2024-02-26T10:50:44;8.60;;;7.70;;
17993;SDS011;9122;48.406;9.984;2024-02-26T10:53:31;7.97;;;7.10;;
17993;SDS011;9122;48.406;9.984;2024-02-26T10:56:17;11.57;;;7.87;;
17993;SDS011;9122;48.406;9.984;2024-02-26T10:59:02;8.83;;;8.00;;
17993;SDS011;9122;48.406;9.984;2024-02-26T11:01:49;9.67;;;8.67;;
17993;SDS011;9122;48.406;9.984;2024-02-26T11:04:34;8.80;;;7.90;;
17993;SDS011;9122;48.406;9.984;2024-02-26T11:07:19;8.70;;;7.90;;
17993;SDS011;9122;48.406;9.984;2024-02-26T11:10:05;7.50;;;6.80;;
17993;SDS011;9122;48.406;9.984;2024-02-26T11:12:50;8.57;;;7.67;;
17993;SDS011;9122;48.406;9.984;2024-02-26T11:15:36;7.70;;;7.00;;
17993;SDS011;9122;48.406;9.984;2024-02-26T11:18:21;8.20;;;7.40;;
17993;SDS011;9122;48.406;9.984;2024-02-26T11:21:07;8.07;;;7.37;;
17993;SDS011;9122;48.406;9.984;2024-02-26T11:23:53;7.70;;;6.93;;
17993;SDS011;9122;48.406;9.984;2024-02-26T11:26:40;8.83;;;6.90;;
17993;SDS011;9122;48.406;9.984;2024-02-26T11:29:41;7.30;;;6.70;;
17993;SDS011;9122;48.406;9.984;2024-02-26T11:32:30;8.33;;;7.47;;
17993;SDS011;9122;48.406;9.984;2024-02-26T11:35:15;7.60;;;6.90;;
17993;SDS011;9122;48.406;9.984;2024-02-26T11:38:01;8.10;;;7.30;;
17993;SDS011;9122;48.406;9.984;2024-02-26T11:40:47;8.33;;;7.60;;
17993;SDS011;9122;48.406;9.984;2024-02-26T11:43:50;9.00;;;8.10;;
17993;SDS011;9122;48.406;9.984;2024-02-26T11:46:42;8.90;;;8.00;;
17993;SDS011;9122;48.406;9.984;2024-02-26T11:52:12;8.93;;;8.13;;
17993;SDS011;9122;48.406;9.984;2024-02-26T11:54:58;7.60;;;6.87;;
17993;SDS011;9122;48.406;9.984;2024-02-26T11:57:42;9.20;;;8.30;;
17993;SDS011;9122;48.406;9.984;2024-02-26T12:00:27;8.60;;;7.70;;
17993;SDS011;9122;48.406;9.984;2024-02-26T12:03:16;8.23;;;7.33;;
17993;SDS011;9122;48.406;9.984;2024-02-26T12:06:01;7.93;;;7.23;;
17993;SDS011;9122;48.406;9.984;2024-02-26T12:08:47;8.93;;;7.93;;
17993;SDS011;9122;48.406;9.984;2024-02-26T12:11:32;8.20;;;7.40;;
17993;SDS011;9122;48.406;9.984;2024-02-26T12:14:17;7.57;;;6.87;;
17993;SDS011;9122;48.406;9.984;2024-02-26T12:17:02;11.30;;;9.20;;
17993;SDS011;9122;48.406;9.984;2024-02-26T12:19:50;11.97;;;9.83;;
17993;SDS011;9122;48.406;9.984;2024-02-26T12:22:38;9.27;;;8.33;;
17993;SDS011;9122;48.406;9.984;2024-02-26T12:25:26;10.73;;;9.23;;
17993;SDS011;9122;48.406;9.984;2024-02-26T12:28:12;10.00;;;9.00;;
17993;SDS011;9122;48.406;9.984;2024-02-26T12:30:56;10.07;;;9.07;;
17993;SDS011;9122;48.406;9.984;2024-02-26T12:33:43;9.97;;;8.77;;
17993;SDS011;9122;48.406;9.984;2024-02-26T12:36:27;9.50;;;8.53;;
17993;SDS011;9122;48.406;9.984;2024-02-26T12:39:12;9.50;;;8.67;;
17993;SDS011;9122;48.406;9.984;2024-02-26T12:41:57;9.63;;;8.73;;
17993;SDS011;9122;48.406;9.984;2024-02-26T12:44:44;8.37;;;7.67;;
17993;SDS011;9122;48.406;9.984;2024-02-26T12:47:29;8.70;;;7.87;;
17993;SDS011;9122;48.406;9.984;2024-02-26T12:50:14;9.63;;;8.67;;
17993;SDS011;9122;48.406;9.984;2024-02-26T12:52:58;8.80;;;7.93;;
17993;SDS011;9122;48.406;9.984;2024-02-26T12:55:43;8.60;;;7.77;;
17993;SDS011;9122;48.406;9.984;2024-02-26T12:58:28;8.20;;;7.37;;
17993;SDS011;9122;48.406;9.984;2024-02-26T13:01:15;8.07;;;7.30;;
17993;SDS011;9122;48.406;9.984;2024-02-26T13:04:03;6.93;;;6.27;;
17993;SDS011;9122;48.406;9.984;2024-02-26T13:06:50;7.33;;;6.73;;
17993;SDS011;9122;48.406;9.984;2024-02-26T13:09:35;6.97;;;6.37;;
17993;SDS011;9122;48.406;9.984;2024-02-26T13:12:20;7.00;;;6.40;;
17993;SDS011;9122;48.406;9.984;2024-02-26T13:15:06;5.93;;;5.43;;
17993;SDS011;9122;48.406;9.984;2024-02-26T13:17:51;7.03;;;6.43;;
17993;SDS011;9122;48.406;9.984;2024-02-26T13:20:36;5.83;;;5.40;;
17993;SDS011;9122;48.406;9.984;2024-02-26T13:23:21;6.33;;;5.70;;
17993;SDS011;9122;48.406;9.984;2024-02-26T13:26:05;6.23;;;5.63;;
17993;SDS011;9122;48.406;9.984;2024-02-26T13:29:02;6.70;;;6.10;;
17993;SDS011;9122;48.406;9.984;2024-02-26T13:31:53;10.57;;;5.47;;
17993;SDS011;9122;48.406;9.984;2024-02-26T13:34:39;5.93;;;5.43;;
17993;SDS011;9122;48.406;9.984;2024-02-26T13:37:23;5.87;;;5.33;;
17993;SDS011;9122;48.406;9.984;2024-02-26T13:40:09;6.70;;;6.00;;
17993;SDS011;9122;48.406;9.984;2024-02-26T13:42:54;5.73;;;5.23;;
17993;SDS011;9122;48.406;9.984;2024-02-26T13:45:39;6.97;;;6.37;;
17993;SDS011;9122;48.406;9.984;2024-02-26T13:48:24;6.40;;;5.80;;
17993;SDS011;9122;48.406;9.984;2024-02-26T13:51:09;6.40;;;5.70;;
17993;SDS011;9122;48.406;9.984;2024-02-26T13:53:54;6.27;;;5.50;;
17993;SDS011;9122;48.406;9.984;2024-02-26T13:56:38;5.50;;;5.00;;
17993;SDS011;9122;48.406;9.984;2024-02-26T13:59:22;5.93;;;5.37;;
17993;SDS011;9122;48.406;9.984;2024-02-26T14:02:07;6.33;;;5.73;;
17993;SDS011;9122;48.406;9.984;2024-02-26T14:04:52;6.03;;;5.43;;
17993;SDS011;9122;48.406;9.984;2024-02-26T14:07:37;5.00;;;4.60;;
17993;SDS011;9122;48.406;9.984;2024-02-26T14:10:21;4.83;;;4.43;;
17993;SDS011;9122;48.406;9.984;2024-02-26T14:13:06;5.73;;;5.13;;
17993;SDS011;9122;48.406;9.984;2024-02-26T14:15:50;5.80;;;5.30;;
17993;SDS011;9122;48.406;9.984;2024-02-26T14:18:34;5.77;;;5.17;;
17993;SDS011;9122;48.406;9.984;2024-02-26T14:21:18;6.43;;;5.83;;
17993;SDS011;9122;48.406;9.984;2024-02-26T14:24:03;7.97;;;6.50;;
17993;SDS011;9122;48.406;9.984;2024-02-26T14:26:48;7.00;;;6.30;;
17993;SDS011;9122;48.406;9.984;2024-02-26T14:29:32;7.37;;;6.77;;
17993;SDS011;9122;48.406;9.984;2024-02-26T14:32:17;6.53;;;5.90;;
17993;SDS011;9122;48.406;9.984;2024-02-26T14:35:01;6.63;;;6.03;;
17993;SDS011;9122;48.406;9.984;2024-02-26T14:37:47;6.70;;;6.20;;
17993;SDS011;9122;48.406;9.984;2024-02-26T14:40:35;6.57;;;5.97;;
17993;SDS011;9122;48.406;9.984;2024-02-26T14:43:19;5.43;;;4.87;;
17993;SDS011;9122;48.406;9.984;2024-02-26T14:46:04;6.00;;;5.50;;
17993;SDS011;9122;48.406;9.984;2024-02-26T14:48:48;5.47;;;4.97;;
17993;SDS011;9122;48.406;9.984;2024-02-26T14:51:33;5.80;;;5.30;;
17993;SDS011;9122;48.406;9.984;2024-02-26T14:54:18;6.50;;;5.97;;
17993;SDS011;9122;48.406;9.984;2024-02-26T14:57:02;5.87;;;5.30;;
17993;SDS011;9122;48.406;9.984;2024-02-26T14:59:48;5.57;;;5.07;;
17993;SDS011;9122;48.406;9.984;2024-02-26T15:02:33;6.10;;;5.60;;
17993;SDS011;9122;48.406;9.984;2024-02-26T15:05:18;6.83;;;6.00;;
17993;SDS011;9122;48.406;9.984;2024-02-26T15:08:03;6.40;;;5.87;;
17993;SDS011;9122;48.406;9.984;2024-02-26T15:10:48;6.17;;;5.57;;
17993;SDS011;9122;48.406;9.984;2024-02-26T15:13:33;7.27;;;5.83;;
17993;SDS011;9122;48.406;9.984;2024-02-26T15:16:19;7.30;;;6.60;;
17993;SDS011;9122;48.406;9.984;2024-02-26T15:19:07;7.67;;;6.97;;
17993;SDS011;9122;48.406;9.984;2024-02-26T15:21:51;6.97;;;6.27;;
17993;SDS011;9122;48.406;9.984;2024-02-26T15:24:36;7.77;;;7.00;;
17993;SDS011;9122;48.406;9.984;2024-02-26T15:27:21;7.03;;;6.47;;
17993;SDS011;9122;48.406;9.984;2024-02-26T15:30:05;11.40;;;6.97;;
17993;SDS011;9122;48.406;9.984;2024-02-26T15:32:51;8.03;;;7.23;;
17993;SDS011;9122;48.406;9.984;2024-02-26T15:35:35;7.40;;;6.80;;
17993;SDS011;9122;48.406;9.984;2024-02-26T15:38:20;7.20;;;6.60;;
17993;SDS011;9122;48.406;9.984;2024-02-26T15:41:10;7.57;;;6.80;;
17993;SDS011;9122;48.406;9.984;2024-02-26T15:43:57;7.00;;;6.40;;
17993;SDS011;9122;48.406;9.984;2024-02-26T15:46:44;8.37;;;7.57;;
17993;SDS011;9122;48.406;9.984;2024-02-26T15:49:28;7.07;;;6.43;;
17993;SDS011;9122;48.406;9.984;2024-02-26T15:52:12;8.20;;;7.40;;
17993;SDS011;9122;48.406;9.984;2024-02-26T15:54:56;8.23;;;7.43;;
17993;SDS011;9122;48.406;9.984;2024-02-26T15:57:41;7.87;;;7.17;;
17993;SDS011;9122;48.406;9.984;2024-02-26T16:00:26;7.93;;;7.17;;
17993;SDS011;9122;48.406;9.984;2024-02-26T16:03:11;7.90;;;7.20;;
17993;SDS011;9122;48.406;9.984;2024-02-26T16:05:55;7.83;;;7.10;;
17993;SDS011;9122;48.406;9.984;2024-02-26T16:08:40;7.73;;;6.93;;
17993;SDS011;9122;48.406;9.984;2024-02-26T16:11:24;7.87;;;7.07;;
17993;SDS011;9122;48.406;9.984;2024-02-26T16:16:59;7.20;;;6.60;;
17993;SDS011;9122;48.406;9.984;2024-02-26T16:19:52;9.70;;;8.70;;
17993;SDS011;9122;48.406;9.984;2024-02-26T16:22:36;10.07;;;9.00;;
17993;SDS011;9122;48.406;9.984;2024-02-26T16:25:21;9.03;;;8.13;;
17993;SDS011;9122;48.406;9.984;2024-02-26T16:28:07;9.90;;;8.90;;
17993;SDS011;9122;48.406;9.984;2024-02-26T16:30:51;9.07;;;8.27;;
17993;SDS011;9122;48.406;9.984;2024-02-26T16:33:37;13.63;;;10.43;;
17993;SDS011;9122;48.406;9.984;2024-02-26T16:36:21;8.67;;;7.87;;
17993;SDS011;9122;48.406;9.984;2024-02-26T16:39:06;10.30;;;8.03;;
17993;SDS011;9122;48.406;9.984;2024-02-26T16:41:51;9.13;;;8.23;;
17993;SDS011;9122;48.406;9.984;2024-02-26T16:44:37;8.00;;;7.30;;
17993;SDS011;9122;48.406;9.984;2024-02-26T16:47:23;9.03;;;8.10;;